Time;durP1;ratioP1;P1;durP2;ratioP2;P2;SDS_P1;SDS_P2;PMS_P1;PMS_P2;Temp;Humidity;BMP_temperature;BMP_pressure;BME280_temperature;BME280_humidity;BME280_pressure;Samples;Min_cycle;Max_cycle;Signal;HPM_P1;HPM_P2
2021/07/09 00:00:53;;;;;;;12.05;3.90;;;;;;;;;;5114197;28;20422;-75
2021/07/09 00:03:25;;;;;;;13.98;4.20;;;;;;;;;;5113566;28;20031;-75
2021/07/09 00:05:51;;;;;;;6.95;3.88;;;;;;;;;;5113712;28;20053;-76
2021/07/09 00:08:17;;;;;;;8.38;4.50;;;;;;;;;;5113447;28;20376;-72
2021/07/09 00:10:43;;;;;;;8.63;4.70;;;;;;;;;;5113391;28;20038;-77
2021/07/09 00:13:09;;;;;;;9.95;4.40;;;;;;;;;;5113494;28;20095;-77
2021/07/09 00:15:36;;;;;;;8.13;4.13;;;;;;;;;;5113488;28;20116;-76
2021/07/09 00:18:03;;;;;;;12.88;4.80;;;;;;;;;;5113708;28;20023;-77
2021/07/09 00:20:29;;;;;;;7.15;4.15;;;;;;;;;;5113390;28;20043;-77
2021/07/09 00:22:55;;;;;;;9.30;4.72;;;;;;;;;;5113247;28;20057;-76
2021/07/09 00:25:22;;;;;;;11.52;4.85;;;;;;;;;;5113388;28;20024;-77
2021/07/09 00:27:48;;;;;;;8.57;5.20;;;;;;;;;;5113392;28;20475;-76
2021/07/09 00:30:14;;;;;;;10.48;4.40;;;;;;;;;;5113489;28;20102;-77
2021/07/09 00:32:40;;;;;;;9.63;4.88;;;;;;;;;;5113553;28;20028;-75
2021/07/09 00:35:07;;;;;;;8.82;4.68;;;;;;;;;;5113598;28;20027;-74
2021/07/09 00:37:33;;;;;;;14.43;4.63;;;;;;;;;;5112994;28;20024;-77
2021/07/09 00:40:01;;;;;;;7.68;4.75;;;27.60;65.50;;;;;;5113342;28;20107;-78
2021/07/09 00:42:27;;;;;;;7.32;4.45;;;27.50;64.20;;;;;;5113644;28;20492;-75
2021/07/09 00:44:52;;;;;;;7.47;4.50;;;27.40;64.30;;;;;;5113255;28;20035;-77
2021/07/09 00:47:18;;;;;;;8.85;4.55;;;27.40;64.20;;;;;;5113426;28;20038;-78
2021/07/09 00:49:45;;;;;;;6.75;4.57;;;27.40;64.30;;;;;;5113567;28;20496;-76
2021/07/09 00:52:10;;;;;;;13.98;4.75;;;27.40;64.70;;;;;;5113376;28;20030;-72
2021/07/09 00:54:36;;;;;;;10.48;5.72;;;;;;;;;;5113226;28;20019;-77
2021/07/09 00:57:02;;;;;;;8.68;4.90;;;27.30;64.70;;;;;;5113057;28;20034;-76
2021/07/09 00:59:28;;;;;;;13.20;4.53;;;27.20;64.90;;;;;;5110289;28;20020;-76
2021/07/09 01:01:56;;;;;;;8.80;4.55;;;27.20;65.10;;;;;;5110555;28;20080;-77
2021/07/09 01:04:22;;;;;;;5.53;4.13;;;27.10;65.40;;;;;;5110881;28;20028;-77
2021/07/09 01:06:47;;;;;;;13.27;5.13;;;27.10;65.60;;;;;;5112910;28;20031;-77
2021/07/09 01:09:14;;;;;;;9.30;4.55;;;27.00;65.60;;;;;;5112916;28;20379;-77
2021/07/09 01:11:48;;;;;;;7.85;4.30;;;27.00;65.60;;;;;;5113162;28;20039;-77
2021/07/09 01:14:14;;;;;;;7.07;4.50;;;27.00;65.70;;;;;;5112543;28;20031;-77
2021/07/09 01:16:40;;;;;;;11.77;4.93;;;26.90;65.90;;;;;;5113023;28;20061;-75
2021/07/09 01:19:07;;;;;;;9.23;4.50;;;26.80;65.30;;;;;;5112772;28;20024;-76
2021/07/09 01:21:34;;;;;;;7.53;4.75;;;26.80;66.00;;;;;;5114434;28;20034;-77
2021/07/09 01:24:03;;;;;;;10.05;4.20;;;26.80;66.40;;;;;;5116748;28;20016;-76
2021/07/09 01:26:31;;;;;;;6.53;4.53;;;26.70;66.70;;;;;;5116402;28;20475;-75
2021/07/09 01:28:57;;;;;;;9.13;3.97;;;26.70;67.20;;;;;;5116260;28;20054;-77
2021/07/09 01:31:22;;;;;;;8.00;4.18;;;26.70;67.00;;;;;;5116576;28;20064;-77
2021/07/09 01:33:48;;;;;;;8.30;4.07;;;26.60;65.90;;;;;;5116825;28;20479;-76
2021/07/09 01:36:15;;;;;;;8.35;4.22;;;26.50;66.20;;;;;;5116396;28;20098;-76
2021/07/09 01:38:40;;;;;;;6.53;3.97;;;26.40;66.10;;;;;;5116352;28;20019;-77
2021/07/09 01:41:06;;;;;;;6.55;3.67;;;;;;;;;;5116349;28;20023;-76
2021/07/09 01:43:32;;;;;;;6.50;3.50;;;;;;;;;;5116309;28;20024;-75
2021/07/09 01:45:59;;;;;;;7.57;3.63;;;;;;;;;;5115093;28;20134;-76
2021/07/09 01:48:24;;;;;;;8.38;3.40;;;26.40;66.30;;;;;;5116683;28;20566;-77
2021/07/09 01:50:51;;;;;;;7.35;3.40;;;26.30;65.10;;;;;;5116171;28;20156;-76
2021/07/09 01:53:17;;;;;;;6.18;3.40;;;26.20;65.40;;;;;;5116409;28;20486;-78
2021/07/09 01:55:43;;;;;;;8.98;3.58;;;26.20;66.30;;;;;;5116197;28;20020;-77
2021/07/09 01:58:09;;;;;;;5.43;3.45;;;26.10;66.30;;;;;;5116288;28;20027;-77
2021/07/09 02:00:35;;;;;;;4.72;2.53;;;26.10;66.10;;;;;;5116233;28;20103;-77
2021/07/09 02:03:01;;;;;;;6.10;2.35;;;26.10;65.70;;;;;;5116165;28;20039;-76
2021/07/09 02:05:26;;;;;;;6.07;2.47;;;26.00;65.70;;;;;;5116356;28;20016;-77
2021/07/09 02:07:56;;;;;;;6.20;2.75;;;26.00;65.30;;;;;;5116234;28;20027;-77
2021/07/09 02:10:31;;;;;;;5.18;2.60;;;25.90;65.00;;;;;;5116135;28;20031;-76
2021/07/09 02:12:58;;;;;;;4.05;2.42;;;25.90;64.90;;;;;;5115889;28;20024;-77
2021/07/09 02:15:38;;;;;;;6.60;2.40;;;25.90;65.10;;;;;;5116128;28;20079;-76
2021/07/09 02:18:05;;;;;;;5.10;2.50;;;;;;;;;;5116161;28;20019;-77
2021/07/09 02:20:31;;;;;;;4.97;2.42;;;;;;;;;;5115990;28;20027;-77
2021/07/09 02:22:58;;;;;;;3.30;2.30;;;;;;;;;;5115724;28;20016;-78
2021/07/09 02:25:24;;;;;;;6.40;2.25;;;25.80;65.20;;;;;;5115808;28;20047;-76
2021/07/09 02:27:51;;;;;;;4.00;2.50;;;25.70;65.60;;;;;;5116184;28;20062;-77
2021/07/09 02:30:19;;;;;;;4.97;2.05;;;25.60;65.50;;;;;;5115741;28;20495;-76
2021/07/09 02:32:45;;;;;;;5.93;2.45;;;;;;;;;;5114711;28;20053;-77
2021/07/09 02:35:14;;;;;;;5.40;2.00;;;25.60;65.50;;;;;;5115589;28;20487;-76
2021/07/09 02:37:42;;;;;;;7.07;2.30;;;25.50;65.00;;;;;;5115362;28;20023;-75
2021/07/09 02:40:12;;;;;;;5.95;2.10;;;25.50;65.00;;;;;;5115248;28;20399;-77
2021/07/09 02:42:38;;;;;;;3.40;1.90;;;25.40;65.10;;;;;;5115514;28;20019;-75
2021/07/09 02:45:05;;;;;;;5.30;2.30;;;25.40;65.20;;;;;;5115454;28;20396;-76
2021/07/09 02:47:31;;;;;;;3.63;1.95;;;25.40;65.40;;;;;;5114237;28;20031;-76
2021/07/09 02:49:57;;;;;;;5.00;2.10;;;25.30;65.70;;;;;;5115607;28;20028;-75
2021/07/09 02:52:22;;;;;;;5.82;2.50;;;25.30;65.50;;;;;;5115217;28;20035;-74
2021/07/09 02:54:48;;;;;;;8.20;2.30;;;25.30;65.70;;;;;;5115260;28;20055;-72
2021/07/09 02:57:14;;;;;;;5.90;2.40;;;25.30;65.50;;;;;;5115316;28;20073;-75
2021/07/09 02:59:41;;;;;;;4.13;2.00;;;25.20;65.70;;;;;;5115340;28;20019;-77
2021/07/09 03:02:07;;;;;;;12.07;2.70;;;25.20;65.90;;;;;;5114968;28;20049;-72
2021/07/09 03:04:33;;;;;;;7.65;2.33;;;25.10;66.10;;;;;;5115112;28;20085;-76
2021/07/09 03:06:58;;;;;;;4.75;3.17;;;25.10;66.30;;;;;;5115236;28;20521;-74
2021/07/09 03:09:24;;;;;;;5.90;2.35;;;;;;;;;;5115209;28;20034;-74
2021/07/09 03:11:50;;;;;;;4.57;2.35;;;;;;;;;;5114856;28;20032;-77
2021/07/09 03:14:19;;;;;;;6.80;2.40;;;;;;;;;;5114893;28;20047;-75
2021/07/09 03:16:45;;;;;;;2.95;2.20;;;;;;;;;;5114859;28;20483;-75
2021/07/09 03:19:11;;;;;;;3.67;2.28;;;;;;;;;;5113300;28;20030;-76
2021/07/09 03:21:37;;;;;;;5.28;2.30;;;;;;;;;;5114500;28;20016;-77
2021/07/09 03:24:04;;;;;;;6.72;2.28;;;;;;;;;;5114621;28;20034;-77
2021/07/09 03:26:30;;;;;;;3.40;2.30;;;;;;;;;;5114699;28;20065;-75
2021/07/09 03:28:59;;;;;;;8.73;2.00;;;;;;;;;;5114745;28;20038;-77
2021/07/09 03:31:26;;;;;;;6.18;2.20;;;;;;;;;;5114420;28;20038;-76
2021/07/09 03:33:52;;;;;;;5.07;2.30;;;;;;;;;;5114807;28;20371;-74
2021/07/09 03:36:18;;;;;;;4.15;2.30;;;;;;;;;;5114666;28;20019;-77
2021/07/09 03:38:44;;;;;;;4.78;2.08;;;;;;;;;;5114560;28;20460;-76
2021/07/09 03:41:11;;;;;;;3.92;1.98;;;;;;;;;;5114447;28;20024;-76
2021/07/09 03:43:37;;;;;;;6.18;2.40;;;;;;;;;;5113200;28;20066;-77
2021/07/09 03:46:03;;;;;;;6.60;2.35;;;25.10;66.60;;;;;;5114229;28;20024;-76
2021/07/09 03:48:29;;;;;;;4.40;2.17;;;24.90;67.30;;;;;;5114614;28;20026;-77
2021/07/09 03:50:54;;;;;;;4.38;2.10;;;24.80;67.40;;;;;;5114062;28;20068;-74
2021/07/09 03:53:25;;;;;;;8.52;2.85;;;24.80;67.30;;;;;;5114206;28;20357;-79
2021/07/09 03:55:51;;;;;;;5.27;2.70;;;24.80;67.10;;;;;;5114189;28;20043;-76
2021/07/09 03:58:17;;;;;;;8.82;2.80;;;;;;;;;;5113977;28;20357;-77
2021/07/09 04:00:43;;;;;;;8.80;2.85;;;;;;;;;;5114080;28;20024;-77
2021/07/09 04:03:09;;;;;;;8.93;2.70;;;;;;;;;;5113793;28;20023;-76
2021/07/09 04:05:35;;;;;;;6.03;2.58;;;;;;;;;;5113979;28;20472;-79
2021/07/09 04:08:02;;;;;;;7.45;2.80;;;;;;;;;;5113786;28;20027;-79
2021/07/09 04:10:28;;;;;;;5.55;2.60;;;;;;;;;;5113607;28;20055;-77
2021/07/09 04:12:54;;;;;;;4.28;2.60;;;;;;;;;;5113927;28;20395;-79
2021/07/09 04:15:20;;;;;;;5.32;2.60;;;;;;;;;;5113654;28;20063;-79
2021/07/09 04:17:46;;;;;;;6.45;2.80;;;;;;;;;;5113847;28;20031;-78
2021/07/09 04:20:12;;;;;;;4.95;2.70;;;;;;;;;;5113927;28;20027;-80
2021/07/09 04:22:39;;;;;;;4.07;2.58;;;;;;;;;;5112413;28;20035;-79
2021/07/09 04:25:07;;;;;;;6.63;2.83;;;;;;;;;;5113932;28;20020;-76
2021/07/09 04:27:34;;;;;;;7.75;2.63;;;;;;;;;;5113711;28;20015;-77
2021/07/09 04:30:00;;;;;;;5.57;2.55;;;;;;;;;;5113615;28;20517;-73
2021/07/09 04:32:26;;;;;;;6.30;2.50;;;;;;;;;;5112018;28;20046;-77
2021/07/09 04:34:55;;;;;;;4.82;2.40;;;;;;;;;;5113450;28;20046;-77
2021/07/09 04:37:21;;;;;;;7.65;2.60;;;;;;;;;;5113449;28;20031;-77
2021/07/09 04:39:47;;;;;;;6.75;2.38;;;;;;;;;;5113623;28;20029;-72
2021/07/09 04:42:13;;;;;;;7.70;2.47;;;;;;;;;;5113238;28;20027;-75
2021/07/09 04:44:39;;;;;;;7.05;2.33;;;;;;;;;;5113508;28;20027;-77
2021/07/09 04:47:05;;;;;;;5.00;3.00;;;;;;;;;;5113431;28;20027;-79
2021/07/09 04:49:32;;;;;;;12.88;5.45;;;;;;;;;;5113430;28;20103;-74
2021/07/09 04:51:58;;;;;;;7.72;4.40;;;;;;;;;;5113227;28;20052;-75
2021/07/09 04:54:24;;;;;;;11.07;5.65;;;;;;;;;;5113821;28;20110;-77
2021/07/09 04:56:50;;;;;;;11.50;4.60;;;;;;;;;;5116911;28;20067;-77
2021/07/09 04:59:16;;;;;;;14.90;3.88;;;;;;;;;;5116157;28;20126;-77
2021/07/09 05:01:42;;;;;;;7.63;3.45;;;;;;;;;;5115924;28;20098;-77
2021/07/09 05:04:09;;;;;;;6.22;3.15;;;;;;;;;;5117156;28;20019;-77
2021/07/09 05:06:35;;;;;;;4.75;2.80;;;;;;;;;;5117302;28;20468;-77
2021/07/09 05:09:02;;;;;;;9.13;3.42;;;;;;;;;;5117191;28;20023;-78
2021/07/09 05:11:31;;;;;;;4.75;2.15;;;;;;;;;;5117100;28;20043;-77
2021/07/09 05:13:57;;;;;;;4.63;2.28;;;;;;;;;;5117568;28;20016;-77
2021/07/09 05:16:23;;;;;;;6.80;2.58;;;;;;;;;;5116879;28;20055;-77
2021/07/09 05:18:49;;;;;;;3.85;2.20;;;;;;;;;;5116975;28;20024;-77
2021/07/09 05:21:15;;;;;;;7.13;2.08;;;;;;;;;;5116969;28;20077;-77
2021/07/09 05:23:41;;;;;;;6.13;2.47;;;;;;;;;;5117087;28;20019;-77
2021/07/09 05:26:07;;;;;;;6.88;2.20;;;;;;;;;;5117153;28;20032;-77
2021/07/09 05:28:33;;;;;;;5.32;2.08;;;;;;;;;;5116975;28;20016;-78
2021/07/09 05:31:02;;;;;;;10.95;1.80;;;;;;;;;;5117381;28;20115;-77
2021/07/09 05:33:29;;;;;;;7.93;1.70;;;;;;;;;;5116885;28;20065;-76
2021/07/09 05:35:55;;;;;;;7.45;2.00;;;;;;;;;;5117022;28;20030;-77
2021/07/09 05:38:21;;;;;;;4.82;1.60;;;;;;;;;;5116758;28;20041;-78
2021/07/09 05:40:47;;;;;;;3.75;1.60;;;;;;;;;;5116749;28;20147;-76
2021/07/09 05:43:13;;;;;;;2.80;1.40;;;;;;;;;;5116916;28;20064;-77
2021/07/09 05:45:39;;;;;;;7.38;1.73;;;;;;;;;;5116773;28;20118;-78
2021/07/09 05:48:05;;;;;;;5.72;1.55;;;;;;;;;;5116659;28;20476;-76
2021/07/09 05:50:31;;;;;;;6.07;1.70;;;;;;;;;;5116416;28;20081;-79
2021/07/09 05:52:57;;;;;;;5.40;1.83;;;;;;;;;;5116482;28;20015;-78
2021/07/09 05:55:24;;;;;;;3.55;1.30;;;;;;;;;;5116168;28;20055;-77
2021/07/09 05:57:50;;;;;;;6.13;1.70;;;;;;;;;;5116473;28;20157;-77
2021/07/09 06:00:16;;;;;;;5.70;1.55;;;;;;;;;;5116480;28;20077;-78
2021/07/09 06:02:42;;;;;;;4.63;1.40;;;;;;;;;;5116121;28;20012;-79
2021/07/09 06:05:09;;;;;;;10.55;2.30;;;;;;;;;;5116449;28;20491;-77
2021/07/09 06:07:35;;;;;;;3.92;1.67;;;;;;;;;;5114046;28;20443;-78
2021/07/09 06:10:05;;;;;;;2.35;1.75;;;;;;;;;;5116115;28;20537;-78
2021/07/09 06:12:31;;;;;;;3.05;1.30;;;24.80;67.30;;;;;;5115962;28;20039;-77
2021/07/09 06:14:57;;;;;;;10.23;1.40;;;;;;;;;;5115868;28;20031;-78
2021/07/09 06:17:23;;;;;;;2.50;1.30;;;;;;;;;;5116282;28;20468;-78
2021/07/09 06:19:49;;;;;;;5.95;1.40;;;;;;;;;;5116080;28;20541;-78
2021/07/09 06:22:15;;;;;;;4.03;1.50;;;;;;;;;;5114729;28;20361;-78
2021/07/09 06:24:41;;;;;;;5.60;1.40;;;;;;;;;;5115535;28;20064;-78
2021/07/09 06:27:07;;;;;;;5.72;1.52;;;;;;;;;;5115716;28;20023;-78
2021/07/09 06:29:34;;;;;;;4.20;1.30;;;;;;;;;;5115787;28;20032;-77
2021/07/09 06:32:00;;;;;;;3.13;1.30;;;;;;;;;;5115683;28;20435;-77
2021/07/09 06:34:27;;;;;;;3.63;1.38;;;;;;;;;;5115817;28;20396;-76
2021/07/09 06:36:56;;;;;;;2.50;1.15;;;;;;;;;;5115471;28;20023;-77
2021/07/09 06:39:22;;;;;;;3.78;1.20;;;;;;;;;;5115186;28;20018;-78
2021/07/09 06:41:47;;;;;;;5.13;1.40;;;25.20;61.50;;;;;;5115266;28;20016;-78
2021/07/09 06:44:13;;;;;;;3.38;1.10;;;;;;;;;;5116065;28;20046;-78
2021/07/09 06:46:39;;;;;;;2.38;1.10;;;;;;;;;;5114170;28;20435;-78
2021/07/09 06:49:05;;;;;;;4.72;1.10;;;;;;;;;;5115010;28;20031;-77
2021/07/09 06:51:31;;;;;;;2.55;1.10;;;;;;;;;;5114799;28;20028;-77
2021/07/09 06:53:57;;;;;;;2.53;1.20;;;;;;;;;;5115115;28;20054;-79
2021/07/09 06:56:23;;;;;;;1.67;0.95;;;;;;;;;;5114919;28;20027;-78
2021/07/09 06:58:49;;;;;;;1.17;0.50;;;;;;;;;;5115121;28;20089;-78
2021/07/09 07:01:15;;;;;;;1.23;0.60;;;25.40;59.60;;;;;;5114750;28;20472;-77
2021/07/09 07:03:43;;;;;;;0.40;0.40;;;25.60;55.90;;;;;;5113297;28;20020;-77
2021/07/09 07:06:11;;;;;;;0.88;0.38;;;25.60;54.10;;;;;;5114561;28;20425;-78
2021/07/09 07:08:37;;;;;;;1.13;0.52;;;25.60;53.10;;;;;;5115068;28;20102;-78
2021/07/09 07:11:02;;;;;;;1.58;0.43;;;25.60;52.30;;;;;;5114216;28;20107;-76
2021/07/09 07:13:28;;;;;;;5.57;0.40;;;25.70;52.20;;;;;;5113849;28;20484;-79
2021/07/09 07:15:54;;;;;;;1.88;0.50;;;25.70;50.40;;;;;;5113537;28;20043;-77
2021/07/09 07:18:20;;;;;;;0.47;0.38;;;25.70;49.20;;;;;;5114163;28;20023;-75
2021/07/09 07:20:47;;;;;;;1.70;0.50;;;25.70;48.60;;;;;;5114134;28;20115;-72
2021/07/09 07:23:15;;;;;;;2.75;1.27;;;25.80;48.90;;;;;;5113389;28;20016;-72
2021/07/09 07:25:45;;;;;;;4.85;0.80;;;25.80;49.10;;;;;;5113565;28;20406;-71
2021/07/09 07:28:13;;;;;;;0.65;0.40;;;25.80;49.20;;;;;;5114184;28;20016;-71
2021/07/09 07:30:40;;;;;;;0.80;0.50;;;25.90;49.70;;;;;;5114128;28;20027;-71
2021/07/09 07:33:06;;;;;;;2.83;0.40;;;;;;;;;;5114078;28;20476;-70
2021/07/09 07:35:32;;;;;;;0.40;0.40;;;;;;;;;;5114136;28;20050;-74
2021/07/09 07:37:59;;;;;;;1.17;0.47;;;;;;;;;;5114005;28;20066;-72
2021/07/09 07:40:25;;;;;;;1.85;0.60;;;;;;;;;;5113842;28;20069;-73
2021/07/09 07:42:51;;;;;;;0.77;0.38;;;;;;;;;;5114023;28;20035;-72
2021/07/09 07:45:17;;;;;;;1.48;0.52;;;;;;;;;;5114035;28;20459;-73
2021/07/09 07:47:43;;;;;;;2.15;0.50;;;;;;;;;;5110837;28;20059;-73
2021/07/09 07:50:11;;;;;;;0.77;0.40;;;;;;;;;;5112801;28;20024;-72
2021/07/09 07:52:37;;;;;;;0.98;0.40;;;;;;;;;;5113649;28;20035;-73
2021/07/09 07:55:04;;;;;;;0.98;0.50;;;;;;;;;;5113749;28;20030;-73
2021/07/09 07:57:30;;;;;;;3.40;0.50;;;;;;;;;;5113821;28;20023;-72
2021/07/09 07:59:56;;;;;;;2.50;0.40;;;;;;;;;;5113813;28;20114;-72
2021/07/09 08:02:22;;;;;;;0.95;0.40;;;;;;;;;;5114108;28;20024;-72
2021/07/09 08:04:48;;;;;;;3.05;0.40;;;;;;;;;;5113894;28;20032;-72
2021/07/09 08:07:16;;;;;;;0.63;0.30;;;25.80;49.70;;;;;;5114020;28;20023;-72
2021/07/09 08:09:43;;;;;;;0.73;0.30;;;26.40;45.80;;;;;;5114070;28;20076;-72
2021/07/09 08:12:08;;;;;;;2.05;0.50;;;26.50;46.10;;;;;;5113730;28;20653;-72
2021/07/09 08:14:35;;;;;;;2.38;0.43;;;26.40;45.90;;;;;;5113604;28;20123;-73
2021/07/09 08:17:01;;;;;;;2.30;0.50;;;;;;;;;;5113920;28;20384;-72
2021/07/09 08:19:27;;;;;;;1.10;0.47;;;;;;;;;;5113938;28;20024;-73
2021/07/09 08:21:53;;;;;;;0.43;0.40;;;;;;;;;;5112389;28;20063;-72
2021/07/09 08:24:19;;;;;;;2.75;0.60;;;26.50;46.70;;;;;;5113831;28;20095;-71
2021/07/09 08:26:45;;;;;;;2.05;0.60;;;26.70;46.30;;;;;;5113717;28;20420;-72
2021/07/09 08:29:12;;;;;;;2.35;0.50;;;26.70;46.00;;;;;;5113621;28;20040;-72
2021/07/09 08:31:38;;;;;;;1.73;0.60;;;26.80;44.80;;;;;;5113179;28;20107;-73
2021/07/09 08:34:04;;;;;;;1.35;0.50;;;26.80;45.40;;;;;;5113654;28;20027;-72
2021/07/09 08:36:30;;;;;;;2.75;0.68;;;26.80;46.10;;;;;;5113864;28;20031;-72
2021/07/09 08:38:56;;;;;;;1.55;0.50;;;26.90;46.50;;;;;;5113755;28;20357;-72
2021/07/09 08:41:22;;;;;;;3.08;0.50;;;27.00;46.60;;;;;;5113767;28;20054;-72
2021/07/09 08:43:48;;;;;;;2.17;0.50;;;27.10;46.30;;;;;;5113618;28;20023;-73
2021/07/09 08:46:21;;;;;;;1.83;0.60;;;27.10;46.20;;;;;;5113430;28;20084;-73
2021/07/09 08:48:47;;;;;;;5.90;0.70;;;;;;;;;;5113684;28;20016;-72
2021/07/09 08:51:13;;;;;;;1.52;0.75;;;27.20;46.70;;;;;;5113725;28;20067;-72
2021/07/09 08:53:39;;;;;;;1.65;0.40;;;;;;;;;;5113602;28;20056;-72
2021/07/09 08:56:06;;;;;;;1.95;1.00;;;;;;;;;;5113806;28;20051;-73
2021/07/09 08:58:32;;;;;;;3.38;0.70;;;;;;;;;;5113526;28;20035;-72
2021/07/09 09:00:59;;;;;;;2.70;0.75;;;;;;;;;;5113153;28;20020;-71
2021/07/09 09:03:26;;;;;;;3.15;0.57;;;27.30;46.70;;;;;;5113384;28;20039;-72
2021/07/09 09:06:00;;;;;;;2.83;0.65;;;;;;;;;;5113392;28;20024;-72
2021/07/09 09:08:26;;;;;;;1.63;0.55;;;;;;;;;;5113570;28;20026;-72
2021/07/09 09:10:55;;;;;;;1.95;0.50;;;;;;;;;;5113279;28;20063;-72
2021/07/09 09:13:28;;;;;;;7.38;0.93;;;;;;;;;;5113248;28;20055;-72
2021/07/09 09:16:10;;;;;;;2.55;0.50;;;;;;;;;;5111857;28;20040;-72
2021/07/09 09:18:37;;;;;;;1.13;0.55;;;;;;;;;;5113459;28;20100;-73
2021/07/09 09:21:06;;;;;;;1.75;0.50;;;;;;;;;;5113664;28;20452;-72
2021/07/09 09:23:35;;;;;;;2.10;0.60;;;;;;;;;;5113256;28;20152;-73
2021/07/09 09:26:01;;;;;;;4.15;0.70;;;;;;;;;;5113548;28;20395;-72
2021/07/09 09:28:29;;;;;;;2.70;0.50;;;;;;;;;;5113285;28;20024;-72
2021/07/09 09:30:56;;;;;;;4.57;0.85;;;;;;;;;;5113281;28;20062;-72
2021/07/09 09:33:23;;;;;;;2.97;0.70;;;;;;;;;;5113157;28;20027;-72
2021/07/09 09:35:54;;;;;;;1.40;0.75;;;27.50;45.30;;;;;;5112769;28;20031;-72
2021/07/09 09:38:28;;;;;;;3.70;0.75;;;28.00;42.80;;;;;;5113042;28;20030;-72
2021/07/09 09:40:59;;;;;;;2.15;0.80;;;28.10;44.10;;;;;;5113655;28;20024;-72
2021/07/09 09:43:29;;;;;;;5.38;0.80;;;28.10;43.80;;;;;;5116599;28;20065;-72
2021/07/09 09:45:59;;;;;;;2.58;0.60;;;28.10;43.50;;;;;;5116639;28;20031;-72
2021/07/09 09:48:38;;;;;;;2.40;0.60;;;28.20;44.00;;;;;;5116779;28;20027;-73
2021/07/09 09:51:25;;;;;;;4.05;1.23;;;28.20;44.10;;;;;;5116844;28;20023;-72
2021/07/09 09:53:54;;;;;;;2.55;0.63;;;28.20;44.20;;;;;;5116833;28;20099;-73
2021/07/09 09:56:35;;;;;;;1.98;0.57;;;28.30;44.10;;;;;;5116580;28;20024;-73
2021/07/09 09:59:23;;;;;;;1.02;0.75;;;28.40;44.90;;;;;;5116465;28;20033;-72
2021/07/09 10:01:58;;;;;;;3.05;0.80;;;28.50;44.40;;;;;;5116627;28;20016;-72
2021/07/09 10:04:26;;;;;;;3.53;0.80;;;28.50;43.90;;;;;;5116139;28;20449;-73
2021/07/09 10:06:52;;;;;;;1.02;0.60;;;28.50;43.90;;;;;;5116311;28;20049;-73
2021/07/09 10:09:22;;;;;;;1.95;0.80;;;28.50;44.10;;;;;;5116165;28;20451;-73
2021/07/09 10:11:48;;;;;;;1.88;0.70;;;28.50;43.20;;;;;;5116228;28;20020;-73
2021/07/09 10:14:19;;;;;;;1.52;0.68;;;28.50;44.60;;;;;;5116010;28;20020;-72
2021/07/09 10:16:47;;;;;;;3.13;0.90;;;28.60;43.10;;;;;;5116135;28;20031;-72
2021/07/09 10:19:20;;;;;;;3.10;1.08;;;28.60;43.80;;;;;;5116174;28;20058;-73
2021/07/09 10:21:46;;;;;;;2.22;0.80;;;;;;;;;;5116186;28;20030;-71
2021/07/09 10:24:14;;;;;;;3.00;0.90;;;;;;;;;;5115990;28;20019;-72
2021/07/09 10:26:45;;;;;;;8.23;0.95;;;;;;;;;;5116060;28;20024;-72
2021/07/09 10:29:19;;;;;;;2.97;0.80;;;;;;;;;;5115896;28;20023;-72
2021/07/09 10:31:46;;;;;;;4.78;1.00;;;;;;;;;;5116052;28;20455;-73
2021/07/09 10:34:31;;;;;;;1.77;0.85;;;;;;;;;;5114833;28;20058;-72
2021/07/09 10:36:58;;;;;;;5.47;1.00;;;;;;;;;;5115774;28;20027;-72
2021/07/09 10:39:42;;;;;;;1.90;0.82;;;28.70;43.20;;;;;;5115373;28;20073;-72
2021/07/09 10:42:47;;;;;;;2.28;1.08;;;28.60;43.60;;;;;;5115365;28;20099;-72
2021/07/09 10:45:14;;;;;;;4.35;1.05;;;;;;;;;;5052642;28;20167;-72
2021/07/09 10:47:43;;;;;;;4.10;1.10;;;;;;;;;;5052935;28;20039;-72
2021/07/09 10:50:16;;;;;;;5.90;0.93;;;28.50;43.40;;;;;;5084178;28;20093;-72
2021/07/09 10:52:42;;;;;;;2.97;1.20;;;;;;;;;;5114767;28;20071;-72
2021/07/09 10:55:26;;;;;;;2.15;0.80;;;;;;;;;;5115099;28;20456;-70
2021/07/09 10:58:19;;;;;;;2.80;0.90;;;;;;;;;;5115346;28;20028;-75
2021/07/09 11:00:55;;;;;;;1.42;0.85;;;28.40;45.20;;;;;;5115017;28;20050;-73
2021/07/09 11:03:30;;;;;;;1.10;0.80;;;;;;;;;;5114872;28;20044;-71
2021/07/09 11:05:56;;;;;;;2.30;0.80;;;;;;;;;;5114911;28;20027;-73
2021/07/09 11:11:12;;;;;;;1.83;0.60;;;;;;;;;;5114760;28;20114;-72
2021/07/09 11:16:22;;;;;;;0.90;0.40;;;;;;;;;;5114784;28;20044;-72
2021/07/09 11:18:51;;;;;;;3.20;0.77;;;;;;;;;;5114791;28;20032;-72
2021/07/09 11:21:29;;;;;;;3.00;0.50;;;;;;;;;;5114761;28;20493;-71
2021/07/09 11:23:59;;;;;;;1.85;0.60;;;;;;;;;;5114852;28;20024;-72
2021/07/09 11:26:26;;;;;;;4.25;0.85;;;;;;;;;;5114806;28;20027;-72
2021/07/09 11:28:52;;;;;;;1.00;0.47;;;;;;;;;;5114757;28;20027;-72
2021/07/09 11:31:30;;;;;;;2.40;0.47;;;;;;;;;;5114687;28;20527;-72
2021/07/09 11:34:04;;;;;;;1.98;0.50;;;;;;;;;;5114363;28;20486;-72
2021/07/09 11:36:42;;;;;;;1.20;0.63;;;;;;;;;;5114499;28;20024;-72
2021/07/09 11:39:09;;;;;;;1.05;0.60;;;;;;;;;;5114187;28;20430;-73
2021/07/09 11:41:51;;;;;;;2.92;0.80;;;;;;;;;;5114120;28;20020;-73
2021/07/09 11:44:38;;;;;;;1.33;0.60;;;;;;;;;;5114390;28;20024;-72
2021/07/09 11:47:09;;;;;;;4.35;0.75;;;;;;;;;;5083066;28;20036;-72
2021/07/09 11:49:36;;;;;;;2.72;0.50;;;;;;;;;;5114138;28;20571;-71
2021/07/09 11:52:11;;;;;;;0.90;0.50;;;;;;;;;;5114136;28;20031;-71
2021/07/09 11:54:47;;;;;;;1.27;0.60;;;;;;;;;;5114060;28;20099;-70
2021/07/09 11:57:15;;;;;;;1.55;0.68;;;;;;;;;;5113949;28;20498;-70
2021/07/09 11:59:44;;;;;;;2.05;0.60;;;;;;;;;;5114049;28;20015;-69
2021/07/09 12:02:11;;;;;;;1.60;0.68;;;;;;;;;;5114013;28;20066;-71
2021/07/09 12:04:37;;;;;;;1.23;0.60;;;;;;;;;;5113079;28;20069;-72
2021/07/09 12:07:16;;;;;;;3.15;0.70;;;;;;;;;;5113875;28;20089;-71
2021/07/09 12:09:46;;;;;;;2.15;0.60;;;;;;;;;;5113720;28;20480;-70
2021/07/09 12:12:13;;;;;;;4.65;0.80;;;;;;;;;;5113665;28;20032;-70
2021/07/09 12:15:09;;;;;;;2.05;0.70;;;;;;;;;;5113111;28;20051;-73
2021/07/09 12:17:36;;;;;;;2.20;0.60;;;;;;;;;;5100438;27;20047;-70
2021/07/09 12:20:05;;;;;;;4.32;0.65;;;;;;;;;;5113459;28;20023;-71
2021/07/09 12:22:33;;;;;;;3.55;0.75;;;;;;;;;;5113240;28;20052;-71
2021/07/09 12:25:01;;;;;;;2.35;0.57;;;;;;;;;;5113550;28;20024;-72
2021/07/09 12:27:29;;;;;;;0.68;0.43;;;;;;;;;;5113329;28;20032;-71
2021/07/09 12:29:56;;;;;;;4.15;1.08;;;;;;;;;;5113324;28;20031;-71
2021/07/09 12:32:22;;;;;;;2.45;0.68;;;;;;;;;;5113287;28;20423;-71
2021/07/09 12:34:48;;;;;;;4.20;0.68;;;28.60;43.20;;;;;;5113379;28;20103;-71
2021/07/09 12:37:14;;;;;;;3.08;0.60;;;;;;;;;;5113363;28;20027;-71
2021/07/09 12:39:40;;;;;;;3.13;0.80;;;;;;;;;;5112817;28;20055;-71
2021/07/09 12:42:11;;;;;;;1.92;0.70;;;;;;;;;;5113196;28;20028;-71
2021/07/09 12:44:37;;;;;;;1.83;0.60;;;;;;;;;;5111718;28;20023;-70
2021/07/09 12:47:03;;;;;;;4.05;0.70;;;;;;;;;;5111242;28;20023;-70
2021/07/09 12:49:29;;;;;;;1.88;0.70;;;;;;;;;;5111164;28;20050;-71
2021/07/09 12:52:04;;;;;;;3.25;0.68;;;;;;;;;;5113064;28;20464;-71
2021/07/09 12:54:32;;;;;;;4.65;0.80;;;;;;;;;;5113172;28;20049;-71
2021/07/09 12:57:03;;;;;;;0.88;0.60;;;;;;;;;;5113296;28;20023;-72
2021/07/09 12:59:31;;;;;;;1.15;0.52;;;;;;;;;;5113490;28;20020;-71
2021/07/09 13:01:59;;;;;;;9.95;0.60;;;;;;;;;;5113135;28;20491;-71
2021/07/09 13:04:26;;;;;;;2.05;0.65;;;;;;;;;;5113198;28;20039;-72
2021/07/09 13:07:11;;;;;;;2.78;0.60;;;;;;;;;;5113367;28;20433;-71
2021/07/09 13:09:43;;;;;;;4.07;1.00;;;;;;;;;;5113576;28;20031;-71
2021/07/09 13:12:25;;;;;;;2.25;0.57;;;;;;;;;;5113442;28;20036;-71
2021/07/09 13:14:57;;;;;;;3.05;0.60;;;;;;;;;;5112783;28;20040;-71
2021/07/09 13:17:23;;;;;;;1.42;0.60;;;29.40;38.70;;;;;;5116250;28;20460;-71
2021/07/09 13:19:59;;;;;;;0.80;0.50;;;29.40;41.50;;;;;;5117410;28;20016;-71
2021/07/09 13:22:36;;;;;;;1.02;0.50;;;29.40;41.90;;;;;;5117553;28;20027;-71
2021/07/09 13:25:19;;;;;;;3.03;0.80;;;29.50;41.40;;;;;;5116714;28;20026;-71
2021/07/09 13:28:13;;;;;;;2.30;0.70;;;29.50;43.30;;;;;;5116952;28;20101;-71
2021/07/09 13:30:46;;;;;;;3.03;0.68;;;29.50;42.30;;;;;;5116143;28;20016;-71
2021/07/09 13:33:15;;;;;;;5.18;0.80;;;29.40;42.40;;;;;;5116997;28;20103;-71
2021/07/09 13:35:47;;;;;;;3.42;0.43;;;29.40;43.00;;;;;;5116800;28;20024;-71
2021/07/09 13:38:13;;;;;;;2.38;0.60;;;29.40;42.90;;;;;;5116635;28;20120;-71
2021/07/09 13:40:43;;;;;;;2.67;0.60;;;29.40;43.50;;;;;;5116447;28;20054;-72
2021/07/09 13:43:09;;;;;;;2.15;0.60;;;29.40;43.80;;;;;;5116450;28;20047;-73
2021/07/09 13:45:37;;;;;;;1.80;0.60;;;29.40;44.30;;;;;;5116667;28;20187;-71
2021/07/09 13:48:03;;;;;;;3.00;0.55;;;29.40;43.00;;;;;;5116336;28;20038;-72
2021/07/09 13:50:31;;;;;;;1.42;0.60;;;29.40;44.00;;;;;;5116273;28;20020;-71
2021/07/09 13:52:57;;;;;;;2.25;0.70;;;29.30;44.90;;;;;;5116613;28;20365;-72
2021/07/09 13:55:23;;;;;;;2.70;0.70;;;29.30;44.80;;;;;;5116587;28;20111;-71
2021/07/09 13:57:49;;;;;;;2.20;0.55;;;29.30;44.00;;;;;;5116392;28;20533;-71
2021/07/09 14:00:16;;;;;;;3.05;0.60;;;29.40;44.50;;;;;;5116308;28;20024;-72
2021/07/09 14:02:42;;;;;;;2.10;0.65;;;29.30;44.00;;;;;;5116318;28;20498;-72
2021/07/09 14:05:08;;;;;;;2.33;0.55;;;29.30;44.50;;;;;;5116332;28;20020;-72